sensor_id;sensor_type;location;lat;lon;timestamp;P1;durP1;ratioP1;P2;durP2;ratioP2
65187;SDS011;51775;51.148;6.950;2022-08-25T00:01:59;1.02;;;0.90;;
65187;SDS011;51775;51.148;6.950;2022-08-25T00:04:27;1.13;;;0.80;;
65187;SDS011;51775;51.148;6.950;2022-08-25T00:06:53;1.10;;;0.90;;
65187;SDS011;51775;51.148;6.950;2022-08-25T00:09:19;1.33;;;0.93;;
65187;SDS011;51775;51.148;6.950;2022-08-25T00:11:47;0.80;;;0.75;;
65187;SDS011;51775;51.148;6.950;2022-08-25T00:14:18;1.10;;;0.90;;
65187;SDS011;51775;51.148;6.950;2022-08-25T00:16:47;0.98;;;0.85;;
65187;SDS011;51775;51.148;6.950;2022-08-25T00:19:14;1.10;;;0.80;;
65187;SDS011;51775;51.148;6.950;2022-08-25T00:21:42;1.27;;;0.90;;
65187;SDS011;51775;51.148;6.950;2022-08-25T00:24:09;1.15;;;0.90;;
65187;SDS011;51775;51.148;6.950;2022-08-25T00:26:39;1.10;;;0.80;;
65187;SDS011;51775;51.148;6.950;2022-08-25T00:29:06;1.25;;;0.90;;
65187;SDS011;51775;51.148;6.950;2022-08-25T00:31:31;1.50;;;1.00;;
65187;SDS011;51775;51.148;6.950;2022-08-25T00:33:57;0.80;;;0.70;;
65187;SDS011;51775;51.148;6.950;2022-08-25T00:36:22;1.00;;;0.90;;
65187;SDS011;51775;51.148;6.950;2022-08-25T00:38:48;1.00;;;0.80;;
65187;SDS011;51775;51.148;6.950;2022-08-25T00:41:15;1.33;;;0.90;;
65187;SDS011;51775;51.148;6.950;2022-08-25T00:43:45;1.15;;;0.90;;
65187;SDS011;51775;51.148;6.950;2022-08-25T00:46:35;1.40;;;1.00;;
65187;SDS011;51775;51.148;6.950;2022-08-25T00:49:09;1.25;;;1.02;;
65187;SDS011;51775;51.148;6.950;2022-08-25T00:51:46;1.23;;;1.00;;
65187;SDS011;51775;51.148;6.950;2022-08-25T00:54:33;1.05;;;0.90;;
65187;SDS011;51775;51.148;6.950;2022-08-25T00:57:02;1.30;;;0.90;;
65187;SDS011;51775;51.148;6.950;2022-08-25T00:59:29;1.13;;;0.90;;
65187;SDS011;51775;51.148;6.950;2022-08-25T01:01:54;1.45;;;1.00;;
65187;SDS011;51775;51.148;6.950;2022-08-25T01:04:20;1.00;;;0.90;;
65187;SDS011;51775;51.148;6.950;2022-08-25T01:06:46;1.30;;;0.98;;
65187;SDS011;51775;51.148;6.950;2022-08-25T01:09:12;1.25;;;1.00;;
65187;SDS011;51775;51.148;6.950;2022-08-25T01:11:38;1.15;;;0.90;;
65187;SDS011;51775;51.148;6.950;2022-08-25T01:14:08;1.58;;;1.00;;
65187;SDS011;51775;51.148;6.950;2022-08-25T01:16:36;1.10;;;0.90;;
65187;SDS011;51775;51.148;6.950;2022-08-25T01:19:12;1.08;;;0.95;;
65187;SDS011;51775;51.148;6.950;2022-08-25T01:21:40;1.27;;;0.93;;
65187;SDS011;51775;51.148;6.950;2022-08-25T01:24:13;1.40;;;1.10;;
65187;SDS011;51775;51.148;6.950;2022-08-25T01:26:48;1.00;;;0.90;;
65187;SDS011;51775;51.148;6.950;2022-08-25T01:29:14;1.10;;;0.90;;
65187;SDS011;51775;51.148;6.950;2022-08-25T01:31:39;1.63;;;1.10;;
65187;SDS011;51775;51.148;6.950;2022-08-25T01:34:05;1.30;;;1.10;;
65187;SDS011;51775;51.148;6.950;2022-08-25T01:36:32;1.20;;;0.90;;
65187;SDS011;51775;51.148;6.950;2022-08-25T01:38:58;1.38;;;1.00;;
65187;SDS011;51775;51.148;6.950;2022-08-25T01:44:12;1.50;;;1.00;;
65187;SDS011;51775;51.148;6.950;2022-08-25T01:46:38;1.48;;;0.98;;
65187;SDS011;51775;51.148;6.950;2022-08-25T01:49:04;1.40;;;1.00;;
65187;SDS011;51775;51.148;6.950;2022-08-25T01:51:32;2.03;;;0.95;;
65187;SDS011;51775;51.148;6.950;2022-08-25T01:54:01;1.55;;;1.10;;
65187;SDS011;51775;51.148;6.950;2022-08-25T01:56:27;1.38;;;1.08;;
65187;SDS011;51775;51.148;6.950;2022-08-25T01:58:52;1.52;;;1.10;;
65187;SDS011;51775;51.148;6.950;2022-08-25T02:01:19;1.33;;;1.10;;
65187;SDS011;51775;51.148;6.950;2022-08-25T02:03:48;1.20;;;1.00;;
65187;SDS011;51775;51.148;6.950;2022-08-25T02:06:23;1.50;;;1.00;;
65187;SDS011;51775;51.148;6.950;2022-08-25T02:08:52;1.30;;;1.08;;
65187;SDS011;51775;51.148;6.950;2022-08-25T02:11:19;1.50;;;1.10;;
65187;SDS011;51775;51.148;6.950;2022-08-25T02:13:45;1.83;;;1.20;;
65187;SDS011;51775;51.148;6.950;2022-08-25T02:16:13;1.40;;;1.10;;
65187;SDS011;51775;51.148;6.950;2022-08-25T02:18:43;1.63;;;1.10;;
65187;SDS011;51775;51.148;6.950;2022-08-25T02:21:08;1.55;;;1.10;;
65187;SDS011;51775;51.148;6.950;2022-08-25T02:23:34;1.70;;;1.10;;
65187;SDS011;51775;51.148;6.950;2022-08-25T02:25:59;1.50;;;1.15;;
65187;SDS011;51775;51.148;6.950;2022-08-25T02:28:24;1.30;;;1.00;;
65187;SDS011;51775;51.148;6.950;2022-08-25T02:30:50;1.48;;;1.10;;
65187;SDS011;51775;51.148;6.950;2022-08-25T02:33:15;2.38;;;1.10;;
65187;SDS011;51775;51.148;6.950;2022-08-25T02:35:40;2.03;;;1.10;;
65187;SDS011;51775;51.148;6.950;2022-08-25T02:38:06;1.77;;;1.20;;
65187;SDS011;51775;51.148;6.950;2022-08-25T02:40:31;1.60;;;1.20;;
65187;SDS011;51775;51.148;6.950;2022-08-25T02:42:56;1.52;;;1.20;;
65187;SDS011;51775;51.148;6.950;2022-08-25T02:45:22;1.83;;;1.10;;
65187;SDS011;51775;51.148;6.950;2022-08-25T02:47:47;1.52;;;1.13;;
65187;SDS011;51775;51.148;6.950;2022-08-25T02:50:13;1.30;;;1.00;;
65187;SDS011;51775;51.148;6.950;2022-08-25T02:52:39;1.40;;;1.13;;
65187;SDS011;51775;51.148;6.950;2022-08-25T02:55:05;1.58;;;1.20;;
65187;SDS011;51775;51.148;6.950;2022-08-25T02:57:32;1.52;;;1.13;;
65187;SDS011;51775;51.148;6.950;2022-08-25T02:59:57;1.83;;;1.20;;
65187;SDS011;51775;51.148;6.950;2022-08-25T03:02:23;1.67;;;1.20;;
65187;SDS011;51775;51.148;6.950;2022-08-25T03:04:50;1.50;;;1.13;;
65187;SDS011;51775;51.148;6.950;2022-08-25T03:07:16;2.08;;;1.30;;
65187;SDS011;51775;51.148;6.950;2022-08-25T03:09:42;1.73;;;1.20;;
65187;SDS011;51775;51.148;6.950;2022-08-25T03:12:08;1.73;;;1.23;;
65187;SDS011;51775;51.148;6.950;2022-08-25T03:14:34;1.60;;;1.20;;
65187;SDS011;51775;51.148;6.950;2022-08-25T03:16:59;1.52;;;1.20;;
65187;SDS011;51775;51.148;6.950;2022-08-25T03:19:24;1.80;;;1.30;;
65187;SDS011;51775;51.148;6.950;2022-08-25T03:21:50;2.20;;;1.40;;
65187;SDS011;51775;51.148;6.950;2022-08-25T03:24:15;1.67;;;1.20;;
65187;SDS011;51775;51.148;6.950;2022-08-25T03:26:40;2.15;;;1.42;;
65187;SDS011;51775;51.148;6.950;2022-08-25T03:29:06;3.08;;;1.40;;
65187;SDS011;51775;51.148;6.950;2022-08-25T03:31:32;2.08;;;1.20;;
65187;SDS011;51775;51.148;6.950;2022-08-25T03:33:59;1.92;;;1.27;;
65187;SDS011;51775;51.148;6.950;2022-08-25T03:36:25;1.75;;;1.27;;
65187;SDS011;51775;51.148;6.950;2022-08-25T03:38:51;2.00;;;1.30;;
65187;SDS011;51775;51.148;6.950;2022-08-25T03:41:18;1.67;;;1.30;;
65187;SDS011;51775;51.148;6.950;2022-08-25T03:43:46;2.28;;;1.48;;
65187;SDS011;51775;51.148;6.950;2022-08-25T03:46:15;1.67;;;1.30;;
65187;SDS011;51775;51.148;6.950;2022-08-25T03:48:44;1.80;;;1.23;;
65187;SDS011;51775;51.148;6.950;2022-08-25T03:51:10;1.60;;;1.30;;
65187;SDS011;51775;51.148;6.950;2022-08-25T03:53:35;1.70;;;1.30;;
65187;SDS011;51775;51.148;6.950;2022-08-25T03:56:01;2.03;;;1.40;;
65187;SDS011;51775;51.148;6.950;2022-08-25T03:58:26;1.73;;;1.38;;
65187;SDS011;51775;51.148;6.950;2022-08-25T04:00:51;1.88;;;1.35;;
65187;SDS011;51775;51.148;6.950;2022-08-25T04:03:17;1.80;;;1.33;;
65187;SDS011;51775;51.148;6.950;2022-08-25T04:05:42;2.10;;;1.50;;
65187;SDS011;51775;51.148;6.950;2022-08-25T04:08:07;2.15;;;1.40;;
65187;SDS011;51775;51.148;6.950;2022-08-25T04:10:33;1.60;;;1.20;;
65187;SDS011;51775;51.148;6.950;2022-08-25T04:13:00;2.35;;;1.30;;
65187;SDS011;51775;51.148;6.950;2022-08-25T04:15:25;2.30;;;1.60;;
65187;SDS011;51775;51.148;6.950;2022-08-25T04:17:51;1.98;;;1.40;;
65187;SDS011;51775;51.148;6.950;2022-08-25T04:20:16;1.80;;;1.40;;
65187;SDS011;51775;51.148;6.950;2022-08-25T04:22:41;1.67;;;1.25;;
65187;SDS011;51775;51.148;6.950;2022-08-25T04:25:13;2.33;;;1.42;;
65187;SDS011;51775;51.148;6.950;2022-08-25T04:27:39;1.95;;;1.40;;
65187;SDS011;51775;51.148;6.950;2022-08-25T04:30:05;1.85;;;1.40;;
65187;SDS011;51775;51.148;6.950;2022-08-25T04:32:30;1.90;;;1.35;;
65187;SDS011;51775;51.148;6.950;2022-08-25T04:34:56;1.90;;;1.40;;
65187;SDS011;51775;51.148;6.950;2022-08-25T04:37:21;2.08;;;1.50;;
65187;SDS011;51775;51.148;6.950;2022-08-25T04:39:46;2.10;;;1.50;;
65187;SDS011;51775;51.148;6.950;2022-08-25T04:42:12;1.88;;;1.40;;
65187;SDS011;51775;51.148;6.950;2022-08-25T04:44:37;1.98;;;1.35;;
65187;SDS011;51775;51.148;6.950;2022-08-25T04:47:02;2.00;;;1.50;;
65187;SDS011;51775;51.148;6.950;2022-08-25T04:49:28;2.17;;;1.42;;
65187;SDS011;51775;51.148;6.950;2022-08-25T04:51:54;1.92;;;1.42;;
65187;SDS011;51775;51.148;6.950;2022-08-25T04:54:19;2.00;;;1.60;;
65187;SDS011;51775;51.148;6.950;2022-08-25T04:56:44;2.10;;;1.50;;
65187;SDS011;51775;51.148;6.950;2022-08-25T04:59:12;2.10;;;1.50;;
65187;SDS011;51775;51.148;6.950;2022-08-25T05:01:39;1.90;;;1.30;;
65187;SDS011;51775;51.148;6.950;2022-08-25T05:04:05;2.03;;;1.42;;
65187;SDS011;51775;51.148;6.950;2022-08-25T05:06:32;2.20;;;1.45;;
65187;SDS011;51775;51.148;6.950;2022-08-25T05:08:58;2.08;;;1.60;;
65187;SDS011;51775;51.148;6.950;2022-08-25T05:11:24;2.28;;;1.60;;
65187;SDS011;51775;51.148;6.950;2022-08-25T05:13:51;2.05;;;1.67;;
65187;SDS011;51775;51.148;6.950;2022-08-25T05:16:18;1.77;;;1.40;;
65187;SDS011;51775;51.148;6.950;2022-08-25T05:18:44;1.65;;;1.30;;
65187;SDS011;51775;51.148;6.950;2022-08-25T05:21:11;2.30;;;1.60;;
65187;SDS011;51775;51.148;6.950;2022-08-25T05:23:39;2.20;;;1.50;;
65187;SDS011;51775;51.148;6.950;2022-08-25T05:26:06;2.78;;;1.60;;
65187;SDS011;51775;51.148;6.950;2022-08-25T05:28:36;2.13;;;1.50;;
65187;SDS011;51775;51.148;6.950;2022-08-25T05:31:03;2.10;;;1.52;;
65187;SDS011;51775;51.148;6.950;2022-08-25T05:33:28;2.70;;;1.50;;
65187;SDS011;51775;51.148;6.950;2022-08-25T05:35:54;2.22;;;1.48;;
65187;SDS011;51775;51.148;6.950;2022-08-25T05:38:20;2.17;;;1.60;;
65187;SDS011;51775;51.148;6.950;2022-08-25T05:40:46;2.47;;;1.60;;
65187;SDS011;51775;51.148;6.950;2022-08-25T05:43:11;2.00;;;1.40;;
65187;SDS011;51775;51.148;6.950;2022-08-25T05:45:37;2.28;;;1.55;;
65187;SDS011;51775;51.148;6.950;2022-08-25T05:48:02;1.80;;;1.45;;
65187;SDS011;51775;51.148;6.950;2022-08-25T05:50:27;2.55;;;1.70;;
65187;SDS011;51775;51.148;6.950;2022-08-25T05:52:53;2.70;;;1.60;;
65187;SDS011;51775;51.148;6.950;2022-08-25T05:55:18;2.10;;;1.50;;
65187;SDS011;51775;51.148;6.950;2022-08-25T05:57:44;2.20;;;1.60;;
65187;SDS011;51775;51.148;6.950;2022-08-25T06:00:10;1.90;;;1.40;;
65187;SDS011;51775;51.148;6.950;2022-08-25T06:02:45;2.20;;;1.50;;
65187;SDS011;51775;51.148;6.950;2022-08-25T06:05:12;4.30;;;1.63;;
65187;SDS011;51775;51.148;6.950;2022-08-25T06:07:41;1.70;;;1.30;;
65187;SDS011;51775;51.148;6.950;2022-08-25T06:10:08;2.22;;;1.60;;
65187;SDS011;51775;51.148;6.950;2022-08-25T06:12:34;3.13;;;1.75;;
65187;SDS011;51775;51.148;6.950;2022-08-25T06:14:59;2.00;;;1.58;;
65187;SDS011;51775;51.148;6.950;2022-08-25T06:17:24;2.28;;;1.67;;
65187;SDS011;51775;51.148;6.950;2022-08-25T06:19:50;1.90;;;1.50;;
65187;SDS011;51775;51.148;6.950;2022-08-25T06:22:16;1.98;;;1.50;;
65187;SDS011;51775;51.148;6.950;2022-08-25T06:24:41;2.00;;;1.65;;
65187;SDS011;51775;51.148;6.950;2022-08-25T06:27:07;2.25;;;1.80;;
65187;SDS011;51775;51.148;6.950;2022-08-25T06:29:32;3.17;;;1.77;;
65187;SDS011;51775;51.148;6.950;2022-08-25T06:31:57;2.05;;;1.60;;
65187;SDS011;51775;51.148;6.950;2022-08-25T06:34:23;2.53;;;1.55;;
65187;SDS011;51775;51.148;6.950;2022-08-25T06:36:48;2.35;;;1.65;;
65187;SDS011;51775;51.148;6.950;2022-08-25T06:39:13;2.13;;;1.73;;
65187;SDS011;51775;51.148;6.950;2022-08-25T06:41:38;2.72;;;1.50;;
65187;SDS011;51775;51.148;6.950;2022-08-25T06:44:04;2.22;;;1.70;;
65187;SDS011;51775;51.148;6.950;2022-08-25T06:46:29;2.50;;;1.60;;
65187;SDS011;51775;51.148;6.950;2022-08-25T06:48:55;2.10;;;1.60;;
65187;SDS011;51775;51.148;6.950;2022-08-25T06:51:22;2.33;;;1.50;;
65187;SDS011;51775;51.148;6.950;2022-08-25T06:53:49;1.90;;;1.50;;
65187;SDS011;51775;51.148;6.950;2022-08-25T06:56:16;2.65;;;1.63;;
65187;SDS011;51775;51.148;6.950;2022-08-25T06:58:42;2.38;;;1.70;;
65187;SDS011;51775;51.148;6.950;2022-08-25T07:01:09;2.60;;;1.65;;
65187;SDS011;51775;51.148;6.950;2022-08-25T07:03:35;2.10;;;1.60;;
65187;SDS011;51775;51.148;6.950;2022-08-25T07:06:01;2.30;;;1.60;;
65187;SDS011;51775;51.148;6.950;2022-08-25T07:08:26;1.90;;;1.60;;
65187;SDS011;51775;51.148;6.950;2022-08-25T07:10:52;2.42;;;1.80;;
65187;SDS011;51775;51.148;6.950;2022-08-25T07:13:17;2.83;;;1.67;;
65187;SDS011;51775;51.148;6.950;2022-08-25T07:15:42;2.10;;;1.48;;
65187;SDS011;51775;51.148;6.950;2022-08-25T07:18:08;2.25;;;1.60;;
65187;SDS011;51775;51.148;6.950;2022-08-25T07:20:34;2.40;;;1.70;;
65187;SDS011;51775;51.148;6.950;2022-08-25T07:23:00;2.67;;;1.60;;
65187;SDS011;51775;51.148;6.950;2022-08-25T07:25:26;2.72;;;1.80;;
65187;SDS011;51775;51.148;6.950;2022-08-25T07:27:51;1.90;;;1.50;;
65187;SDS011;51775;51.148;6.950;2022-08-25T07:30:17;2.72;;;1.90;;
65187;SDS011;51775;51.148;6.950;2022-08-25T07:32:42;2.30;;;1.67;;
65187;SDS011;51775;51.148;6.950;2022-08-25T07:35:08;2.67;;;1.70;;
65187;SDS011;51775;51.148;6.950;2022-08-25T07:37:36;3.00;;;1.80;;
65187;SDS011;51775;51.148;6.950;2022-08-25T07:40:02;1.90;;;1.42;;
65187;SDS011;51775;51.148;6.950;2022-08-25T07:42:28;2.40;;;1.70;;
65187;SDS011;51775;51.148;6.950;2022-08-25T07:44:53;2.20;;;1.77;;
65187;SDS011;51775;51.148;6.950;2022-08-25T07:47:18;2.72;;;1.70;;
65187;SDS011;51775;51.148;6.950;2022-08-25T07:49:44;2.58;;;1.70;;
65187;SDS011;51775;51.148;6.950;2022-08-25T07:52:09;2.65;;;1.70;;
65187;SDS011;51775;51.148;6.950;2022-08-25T07:54:34;2.00;;;1.60;;
65187;SDS011;51775;51.148;6.950;2022-08-25T07:57:04;2.20;;;1.58;;
65187;SDS011;51775;51.148;6.950;2022-08-25T07:59:31;2.20;;;1.50;;
65187;SDS011;51775;51.148;6.950;2022-08-25T08:01:56;2.75;;;1.83;;
65187;SDS011;51775;51.148;6.950;2022-08-25T08:04:21;2.35;;;1.70;;
65187;SDS011;51775;51.148;6.950;2022-08-25T08:06:46;2.00;;;1.58;;
65187;SDS011;51775;51.148;6.950;2022-08-25T08:09:12;2.20;;;1.70;;
65187;SDS011;51775;51.148;6.950;2022-08-25T08:11:37;2.20;;;1.70;;
65187;SDS011;51775;51.148;6.950;2022-08-25T08:14:02;2.20;;;1.67;;
65187;SDS011;51775;51.148;6.950;2022-08-25T08:16:28;2.17;;;1.60;;
65187;SDS011;51775;51.148;6.950;2022-08-25T08:18:54;2.25;;;1.65;;
65187;SDS011;51775;51.148;6.950;2022-08-25T08:21:22;2.03;;;1.52;;
65187;SDS011;51775;51.148;6.950;2022-08-25T08:23:49;1.90;;;1.40;;
65187;SDS011;51775;51.148;6.950;2022-08-25T08:26:16;2.25;;;1.70;;
65187;SDS011;51775;51.148;6.950;2022-08-25T08:28:41;2.13;;;1.60;;
65187;SDS011;51775;51.148;6.950;2022-08-25T08:31:07;2.33;;;1.75;;
65187;SDS011;51775;51.148;6.950;2022-08-25T08:33:32;2.40;;;1.70;;
65187;SDS011;51775;51.148;6.950;2022-08-25T08:38:25;2.60;;;1.70;;
65187;SDS011;51775;51.148;6.950;2022-08-25T08:41:11;2.50;;;1.65;;
65187;SDS011;51775;51.148;6.950;2022-08-25T08:43:52;2.25;;;1.65;;
65187;SDS011;51775;51.148;6.950;2022-08-25T08:46:34;2.20;;;1.50;;
65187;SDS011;51775;51.148;6.950;2022-08-25T08:49:20;2.20;;;1.55;;
65187;SDS011;51775;51.148;6.950;2022-08-25T08:52:00;2.55;;;1.60;;
65187;SDS011;51775;51.148;6.950;2022-08-25T08:54:28;2.42;;;1.65;;
65187;SDS011;51775;51.148;6.950;2022-08-25T08:57:40;1.92;;;1.50;;
65187;SDS011;51775;51.148;6.950;2022-08-25T08:59:53;2.30;;;1.60;;
65187;SDS011;51775;51.148;6.950;2022-08-25T09:02:24;2.20;;;1.60;;
65187;SDS011;51775;51.148;6.950;2022-08-25T09:04:59;2.20;;;1.60;;
65187;SDS011;51775;51.148;6.950;2022-08-25T09:07:32;2.10;;;1.60;;
65187;SDS011;51775;51.148;6.950;2022-08-25T09:20:31;2.20;;;1.50;;
65187;SDS011;51775;51.148;6.950;2022-08-25T09:23:11;2.83;;;1.77;;
65187;SDS011;51775;51.148;6.950;2022-08-25T09:33:48;2.03;;;1.58;;
65187;SDS011;51775;51.148;6.950;2022-08-25T09:36:19;1.88;;;1.50;;
65187;SDS011;51775;51.148;6.950;2022-08-25T09:38:44;2.30;;;1.70;;
65187;SDS011;51775;51.148;6.950;2022-08-25T09:41:10;1.75;;;1.38;;
65187;SDS011;51775;51.148;6.950;2022-08-25T09:43:41;2.20;;;1.50;;
65187;SDS011;51775;51.148;6.950;2022-08-25T09:46:15;2.22;;;1.60;;
65187;SDS011;51775;51.148;6.950;2022-08-25T09:48:49;2.20;;;1.60;;
65187;SDS011;51775;51.148;6.950;2022-08-25T09:51:26;2.10;;;1.50;;
65187;SDS011;51775;51.148;6.950;2022-08-25T09:56:57;2.65;;;1.77;;
65187;SDS011;51775;51.148;6.950;2022-08-25T09:59:25;1.80;;;1.45;;
65187;SDS011;51775;51.148;6.950;2022-08-25T10:01:56;1.80;;;1.40;;
65187;SDS011;51775;51.148;6.950;2022-08-25T10:04:33;2.15;;;1.58;;
65187;SDS011;51775;51.148;6.950;2022-08-25T10:07:01;2.78;;;1.70;;
65187;SDS011;51775;51.148;6.950;2022-08-25T10:09:33;2.03;;;1.50;;
65187;SDS011;51775;51.148;6.950;2022-08-25T10:12:13;2.90;;;1.50;;
65187;SDS011;51775;51.148;6.950;2022-08-25T10:14:41;2.00;;;1.38;;
65187;SDS011;51775;51.148;6.950;2022-08-25T10:17:11;2.00;;;1.52;;
65187;SDS011;51775;51.148;6.950;2022-08-25T10:19:37;2.20;;;1.50;;
65187;SDS011;51775;51.148;6.950;2022-08-25T10:24:33;1.98;;;1.60;;
65187;SDS011;51775;51.148;6.950;2022-08-25T10:27:00;2.13;;;1.63;;
65187;SDS011;51775;51.148;6.950;2022-08-25T10:35:12;1.80;;;1.40;;
65187;SDS011;51775;51.148;6.950;2022-08-25T10:40:24;2.20;;;1.60;;
65187;SDS011;51775;51.148;6.950;2022-08-25T10:43:03;1.85;;;1.50;;
65187;SDS011;51775;51.148;6.950;2022-08-25T10:45:36;2.38;;;1.85;;
65187;SDS011;51775;51.148;6.950;2022-08-25T10:53:49;1.73;;;1.40;;
65187;SDS011;51775;51.148;6.950;2022-08-25T10:56:02;1.95;;;1.33;;
65187;SDS011;51775;51.148;6.950;2022-08-25T10:58:47;2.05;;;1.30;;
65187;SDS011;51775;51.148;6.950;2022-08-25T11:09:20;1.52;;;1.25;;
65187;SDS011;51775;51.148;6.950;2022-08-25T11:11:59;1.92;;;1.40;;
65187;SDS011;51775;51.148;6.950;2022-08-25T11:18:11;1.83;;;1.40;;
65187;SDS011;51775;51.148;6.950;2022-08-25T11:20:26;1.70;;;1.40;;
65187;SDS011;51775;51.148;6.950;2022-08-25T11:23:07;1.90;;;1.40;;
65187;SDS011;51775;51.148;6.950;2022-08-25T11:25:41;1.80;;;1.40;;
65187;SDS011;51775;51.148;6.950;2022-08-25T11:30:41;2.03;;;1.50;;
65187;SDS011;51775;51.148;6.950;2022-08-25T11:33:06;1.88;;;1.40;;
65187;SDS011;51775;51.148;6.950;2022-08-25T11:35:46;2.00;;;1.40;;
65187;SDS011;51775;51.148;6.950;2022-08-25T11:51:52;2.08;;;1.20;;
65187;SDS011;51775;51.148;6.950;2022-08-25T11:54:37;2.15;;;1.40;;
65187;SDS011;51775;51.148;6.950;2022-08-25T11:57:19;2.05;;;1.40;;
65187;SDS011;51775;51.148;6.950;2022-08-25T12:02:35;1.75;;;1.30;;
65187;SDS011;51775;51.148;6.950;2022-08-25T12:05:02;1.80;;;1.40;;
65187;SDS011;51775;51.148;6.950;2022-08-25T12:10:18;2.15;;;1.50;;
65187;SDS011;51775;51.148;6.950;2022-08-25T12:15:19;1.77;;;1.30;;
65187;SDS011;51775;51.148;6.950;2022-08-25T12:18:12;1.60;;;1.20;;
65187;SDS011;51775;51.148;6.950;2022-08-25T12:25:51;1.80;;;1.40;;
65187;SDS011;51775;51.148;6.950;2022-08-25T12:28:33;1.98;;;1.40;;
65187;SDS011;51775;51.148;6.950;2022-08-25T12:31:08;1.73;;;1.40;;
65187;SDS011;51775;51.148;6.950;2022-08-25T12:36:57;1.70;;;1.30;;
65187;SDS011;51775;51.148;6.950;2022-08-25T12:39:28;1.60;;;1.30;;
65187;SDS011;51775;51.148;6.950;2022-08-25T12:42:00;1.73;;;1.40;;
65187;SDS011;51775;51.148;6.950;2022-08-25T12:44:35;2.00;;;1.30;;
65187;SDS011;51775;51.148;6.950;2022-08-25T12:49:38;1.90;;;1.40;;
65187;SDS011;51775;51.148;6.950;2022-08-25T13:00:31;1.88;;;1.20;;
65187;SDS011;51775;51.148;6.950;2022-08-25T13:11:50;1.60;;;1.30;;
65187;SDS011;51775;51.148;6.950;2022-08-25T13:17:06;1.58;;;1.15;;
65187;SDS011;51775;51.148;6.950;2022-08-25T13:19:32;1.60;;;1.20;;
65187;SDS011;51775;51.148;6.950;2022-08-25T13:21:58;1.60;;;1.20;;
65187;SDS011;51775;51.148;6.950;2022-08-25T13:24:33;1.92;;;1.23;;
65187;SDS011;51775;51.148;6.950;2022-08-25T13:27:04;1.85;;;1.35;;
65187;SDS011;51775;51.148;6.950;2022-08-25T13:29:33;2.00;;;1.30;;
65187;SDS011;51775;51.148;6.950;2022-08-25T13:32:02;1.60;;;1.30;;
65187;SDS011;51775;51.148;6.950;2022-08-25T13:34:39;1.90;;;1.40;;
65187;SDS011;51775;51.148;6.950;2022-08-25T13:37:09;1.52;;;1.17;;
65187;SDS011;51775;51.148;6.950;2022-08-25T13:39:40;1.73;;;1.23;;
65187;SDS011;51775;51.148;6.950;2022-08-25T13:42:10;1.63;;;1.10;;
65187;SDS011;51775;51.148;6.950;2022-08-25T13:44:38;1.63;;;1.30;;
65187;SDS011;51775;51.148;6.950;2022-08-25T13:49:32;1.60;;;1.30;;
65187;SDS011;51775;51.148;6.950;2022-08-25T13:51:57;1.52;;;1.20;;
65187;SDS011;51775;51.148;6.950;2022-08-25T13:54:27;1.50;;;1.20;;
65187;SDS011;51775;51.148;6.950;2022-08-25T13:57:16;1.42;;;1.13;;
65187;SDS011;51775;51.148;6.950;2022-08-25T13:59:51;1.40;;;1.20;;
65187;SDS011;51775;51.148;6.950;2022-08-25T14:05:09;1.60;;;1.20;;
65187;SDS011;51775;51.148;6.950;2022-08-25T14:07:35;1.50;;;1.17;;
65187;SDS011;51775;51.148;6.950;2022-08-25T14:10:09;1.77;;;1.23;;
65187;SDS011;51775;51.148;6.950;2022-08-25T14:13:16;1.48;;;1.13;;
65187;SDS011;51775;51.148;6.950;2022-08-25T14:15:51;1.48;;;1.20;;
65187;SDS011;51775;51.148;6.950;2022-08-25T14:18:17;1.52;;;1.20;;
65187;SDS011;51775;51.148;6.950;2022-08-25T14:20:51;1.70;;;1.20;;
65187;SDS011;51775;51.148;6.950;2022-08-25T14:23:19;1.65;;;1.30;;
65187;SDS011;51775;51.148;6.950;2022-08-25T14:25:48;1.63;;;1.20;;
65187;SDS011;51775;51.148;6.950;2022-08-25T14:28:16;1.83;;;1.27;;
65187;SDS011;51775;51.148;6.950;2022-08-25T14:30:44;1.38;;;1.15;;
65187;SDS011;51775;51.148;6.950;2022-08-25T14:33:12;1.45;;;1.20;;
65187;SDS011;51775;51.148;6.950;2022-08-25T14:35:39;1.20;;;1.00;;
65187;SDS011;51775;51.148;6.950;2022-08-25T14:38:08;1.70;;;1.13;;
65187;SDS011;51775;51.148;6.950;2022-08-25T14:40:35;1.83;;;1.20;;
65187;SDS011;51775;51.148;6.950;2022-08-25T14:43:01;1.90;;;1.20;;
65187;SDS011;51775;51.148;6.950;2022-08-25T14:45:26;1.58;;;1.13;;
65187;SDS011;51775;51.148;6.950;2022-08-25T14:47:52;1.40;;;1.02;;
65187;SDS011;51775;51.148;6.950;2022-08-25T14:50:19;1.55;;;1.20;;
65187;SDS011;51775;51.148;6.950;2022-08-25T14:52:44;1.63;;;1.23;;
65187;SDS011;51775;51.148;6.950;2022-08-25T14:55:10;1.65;;;1.20;;
65187;SDS011;51775;51.148;6.950;2022-08-25T14:57:36;1.65;;;1.25;;
65187;SDS011;51775;51.148;6.950;2022-08-25T15:00:03;1.48;;;1.10;;
65187;SDS011;51775;51.148;6.950;2022-08-25T15:02:29;1.88;;;1.20;;
65187;SDS011;51775;51.148;6.950;2022-08-25T15:04:55;1.60;;;1.20;;
65187;SDS011;51775;51.148;6.950;2022-08-25T15:07:24;1.50;;;1.10;;
65187;SDS011;51775;51.148;6.950;2022-08-25T15:09:50;1.83;;;1.30;;
65187;SDS011;51775;51.148;6.950;2022-08-25T15:12:15;1.23;;;1.08;;
65187;SDS011;51775;51.148;6.950;2022-08-25T15:14:40;1.60;;;1.20;;
65187;SDS011;51775;51.148;6.950;2022-08-25T15:17:05;1.52;;;1.10;;
65187;SDS011;51775;51.148;6.950;2022-08-25T15:19:32;1.20;;;1.00;;
65187;SDS011;51775;51.148;6.950;2022-08-25T15:21:58;1.48;;;1.13;;
65187;SDS011;51775;51.148;6.950;2022-08-25T15:24:23;1.55;;;1.17;;
65187;SDS011;51775;51.148;6.950;2022-08-25T15:26:53;1.67;;;1.30;;
65187;SDS011;51775;51.148;6.950;2022-08-25T15:29:23;1.48;;;1.20;;
65187;SDS011;51775;51.148;6.950;2022-08-25T15:31:50;1.70;;;1.20;;
65187;SDS011;51775;51.148;6.950;2022-08-25T15:34:16;1.85;;;1.13;;
65187;SDS011;51775;51.148;6.950;2022-08-25T15:36:41;1.60;;;1.15;;
65187;SDS011;51775;51.148;6.950;2022-08-25T15:39:07;1.40;;;1.17;;
65187;SDS011;51775;51.148;6.950;2022-08-25T15:41:33;1.35;;;1.10;;
65187;SDS011;51775;51.148;6.950;2022-08-25T15:43:58;1.40;;;1.10;;
65187;SDS011;51775;51.148;6.950;2022-08-25T15:46:25;1.52;;;1.10;;
65187;SDS011;51775;51.148;6.950;2022-08-25T15:48:53;1.70;;;1.20;;
65187;SDS011;51775;51.148;6.950;2022-08-25T15:51:19;1.83;;;1.30;;
65187;SDS011;51775;51.148;6.950;2022-08-25T15:53:44;1.75;;;1.30;;
65187;SDS011;51775;51.148;6.950;2022-08-25T15:56:11;1.50;;;1.10;;
65187;SDS011;51775;51.148;6.950;2022-08-25T15:58:37;1.60;;;1.30;;
65187;SDS011;51775;51.148;6.950;2022-08-25T16:01:02;1.48;;;1.10;;
65187;SDS011;51775;51.148;6.950;2022-08-25T16:03:27;1.50;;;1.00;;
65187;SDS011;51775;51.148;6.950;2022-08-25T16:05:53;1.58;;;1.13;;
65187;SDS011;51775;51.148;6.950;2022-08-25T16:08:18;1.48;;;1.25;;
65187;SDS011;51775;51.148;6.950;2022-08-25T16:10:44;1.45;;;1.17;;
65187;SDS011;51775;51.148;6.950;2022-08-25T16:13:10;1.75;;;1.30;;
65187;SDS011;51775;51.148;6.950;2022-08-25T16:15:36;1.50;;;1.13;;
65187;SDS011;51775;51.148;6.950;2022-08-25T16:18:03;1.30;;;1.00;;
65187;SDS011;51775;51.148;6.950;2022-08-25T16:20:30;1.60;;;1.23;;
65187;SDS011;51775;51.148;6.950;2022-08-25T16:22:56;1.50;;;1.20;;
65187;SDS011;51775;51.148;6.950;2022-08-25T16:25:22;1.50;;;1.10;;
65187;SDS011;51775;51.148;6.950;2022-08-25T16:27:47;1.40;;;1.08;;
65187;SDS011;51775;51.148;6.950;2022-08-25T16:30:13;1.50;;;1.15;;
65187;SDS011;51775;51.148;6.950;2022-08-25T16:32:39;1.95;;;1.30;;
65187;SDS011;51775;51.148;6.950;2022-08-25T16:35:04;1.42;;;1.10;;
65187;SDS011;51775;51.148;6.950;2022-08-25T16:37:31;1.30;;;1.00;;
65187;SDS011;51775;51.148;6.950;2022-08-25T16:39:58;1.30;;;1.02;;
65187;SDS011;51775;51.148;6.950;2022-08-25T16:42:24;1.83;;;1.13;;
65187;SDS011;51775;51.148;6.950;2022-08-25T16:44:49;1.67;;;1.20;;
65187;SDS011;51775;51.148;6.950;2022-08-25T16:47:14;1.17;;;1.00;;
65187;SDS011;51775;51.148;6.950;2022-08-25T16:49:40;1.38;;;1.10;;